Terminal Aerodrome Forecast
Issued by NWS

Home | Current Version | Previous Version | Text Only | Print | Product List | Glossary On
Versions: 1 2 3 4 5 6 7 8 9 10 11 12 13 14
000
FTUS46 KLOX 312349
TAFVNY
TAF
KVNY 312349Z 0100/0124 16009KT P6SM SKC
     FM010400 13004KT P6SM SKC
     FM011000 VRB03KT P6SM OVC014
     FM011600 13004KT P6SM FEW019
     FM012000 15008KT P6SM SCT250=

USA.gov is the U.S. government's official web portal to all federal, state and local government web resources and services.